createdAt,value
2022-09-08T00:00:15.294Z,95683.28
2022-09-08T00:02:44.149Z,95689.81
2022-09-08T00:05:15.124Z,95693.66
2022-09-08T00:07:43.374Z,95699.78
2022-09-08T00:10:12.541Z,95716.56
2022-09-08T00:12:42.655Z,95751.94
2022-09-08T00:15:11.224Z,95755.06
2022-09-08T00:17:39.478Z,95766.69
2022-09-08T00:20:10.311Z,95766.44
2022-09-08T00:22:37.783Z,95752.94
2022-09-08T00:25:05.889Z,95748.38
2022-09-08T00:27:33.387Z,95728.75
2022-09-08T00:30:00.869Z,95705.03
2022-09-08T00:32:28.319Z,95722.06
2022-09-08T00:34:56.136Z,95720.44
2022-09-08T00:37:27.118Z,95714.53
2022-09-08T00:39:54.602Z,95709.47
2022-09-08T00:42:22.207Z,95707.00
2022-09-08T00:44:50.535Z,95713.94
2022-09-08T00:47:24.677Z,95681.88
2022-09-08T00:49:57.524Z,95703.72
2022-09-08T00:52:29.004Z,95701.63
2022-09-08T00:54:56.676Z,95703.72
2022-09-08T00:57:24.871Z,95705.75
2022-09-08T00:59:52.719Z,95705.00
2022-09-08T01:02:25.165Z,95712.63
2022-09-08T01:04:59.892Z,95707.66
2022-09-08T01:07:56.347Z,95711.34
2022-09-08T01:10:56.710Z,95694.25
2022-09-08T01:13:25.625Z,95704.13
2022-09-08T01:15:53.251Z,95702.47
2022-09-08T01:18:20.910Z,95686.72
2022-09-08T01:20:51.738Z,95681.81
2022-09-08T01:23:39.183Z,95669.28
2022-09-08T01:26:19.661Z,95667.50
2022-09-08T01:28:53.447Z,95649.50
2022-09-08T01:31:22.635Z,95646.66
2022-09-08T01:33:50.332Z,95639.81
2022-09-08T01:36:19.455Z,95632.81
2022-09-08T01:38:47.613Z,95619.16
2022-09-08T01:41:15.499Z,95614.00
2022-09-08T01:43:42.996Z,95596.25
2022-09-08T01:46:11.931Z,95598.22
2022-09-08T01:48:39.442Z,95598.81
2022-09-08T01:51:09.530Z,95591.06
2022-09-08T01:53:37.461Z,95588.66
2022-09-08T01:56:06.764Z,95589.94
2022-09-08T01:58:35.096Z,95582.91
2022-09-08T02:01:02.694Z,95587.84
2022-09-08T02:03:31.695Z,95581.38
2022-09-08T02:06:02.028Z,95592.84
2022-09-08T02:08:30.225Z,95598.50
2022-09-08T02:11:00.005Z,95597.84
2022-09-08T02:13:27.787Z,95606.19
2022-09-08T02:16:00.111Z,95608.63
2022-09-08T02:18:32.011Z,95605.69
2022-09-08T02:21:08.111Z,95612.91
2022-09-08T02:23:36.210Z,95611.28
2022-09-08T02:26:04.431Z,95621.28
2022-09-08T02:28:32.008Z,95623.41
2022-09-08T02:31:01.010Z,95614.13
2022-09-08T02:33:29.013Z,95622.63
2022-09-08T02:35:58.257Z,95623.59
2022-09-08T02:38:27.231Z,95626.56
2022-09-08T02:40:54.753Z,95637.84
2022-09-08T02:43:23.048Z,95637.78
2022-09-08T02:45:51.172Z,95635.66
2022-09-08T02:48:18.870Z,95631.44
2022-09-08T02:50:47.124Z,95637.22
2022-09-08T02:53:16.195Z,95634.34
2022-09-08T02:55:44.623Z,95644.34
2022-09-08T02:58:12.851Z,95656.16
2022-09-08T03:00:40.572Z,95670.59
2022-09-08T03:03:08.723Z,95659.16
2022-09-08T03:05:37.161Z,95651.78
2022-09-08T03:08:05.610Z,95637.56
2022-09-08T03:10:35.088Z,95607.31
2022-09-08T03:13:03.166Z,95585.88
2022-09-08T03:15:32.710Z,95610.00
2022-09-08T03:18:00.989Z,95598.34
2022-09-08T03:20:28.520Z,95574.03
2022-09-08T03:22:55.988Z,95554.63
2022-09-08T03:25:23.681Z,95559.94
2022-09-08T03:27:52.564Z,95562.06
2022-09-08T03:30:20.426Z,95561.31
2022-09-08T03:32:48.889Z,95569.56
2022-09-08T03:35:18.771Z,95586.56
2022-09-08T03:37:47.027Z,95587.19
2022-09-08T03:40:16.842Z,95591.66
2022-09-08T03:42:46.133Z,95606.22
2022-09-08T03:45:16.596Z,95611.78
2022-09-08T03:47:44.175Z,95608.06
2022-09-08T03:50:12.708Z,95612.53
2022-09-08T03:52:40.476Z,95613.16
2022-09-08T03:55:09.303Z,95620.72
2022-09-08T03:57:37.316Z,95609.78
2022-09-08T04:00:08.007Z,95610.25
2022-09-08T04:02:37.526Z,95613.44
2022-09-08T04:05:06.080Z,95614.13
2022-09-08T04:07:34.288Z,95611.53
2022-09-08T04:10:07.038Z,95594.53
2022-09-08T04:12:38.773Z,95596.91
2022-09-08T04:15:07.636Z,95592.72
2022-09-08T04:17:35.257Z,95586.41
2022-09-08T04:20:05.048Z,95575.66
2022-09-08T04:22:32.525Z,95567.22
2022-09-08T04:25:00.228Z,95584.75
2022-09-08T04:27:27.645Z,95578.81
2022-09-08T04:29:55.179Z,95589.56
2022-09-08T04:32:22.664Z,95580.66
2022-09-08T04:34:51.191Z,95589.06
2022-09-08T04:37:21.083Z,95605.72
2022-09-08T04:39:50.064Z,95605.22
2022-09-08T04:42:17.736Z,95600.78
2022-09-08T04:44:45.239Z,95598.69
2022-09-08T04:47:13.155Z,95586.66
2022-09-08T04:49:40.597Z,95573.53
2022-09-08T04:52:08.051Z,95589.56
2022-09-08T04:54:37.101Z,95590.03
2022-09-08T04:57:04.735Z,95609.00
2022-09-08T04:59:32.401Z,95618.66
2022-09-08T05:02:00.035Z,95630.50
2022-09-08T05:04:27.483Z,95617.84
2022-09-08T05:06:54.942Z,95632.53
2022-09-08T05:09:22.466Z,95624.53
2022-09-08T05:11:51.310Z,95630.88
2022-09-08T05:14:18.917Z,95623.72
2022-09-08T05:16:46.471Z,95627.00
2022-09-08T05:19:14.709Z,95635.47
2022-09-08T05:21:42.212Z,95637.09
2022-09-08T05:24:09.712Z,95641.16
2022-09-08T05:26:37.251Z,95646.03
2022-09-08T05:29:06.136Z,95644.31
2022-09-08T05:31:34.122Z,95652.13
2022-09-08T05:34:02.708Z,95649.59
2022-09-08T05:36:32.376Z,95651.78
2022-09-08T05:39:00.109Z,95652.78
2022-09-08T05:41:27.844Z,95661.50
2022-09-08T05:43:55.808Z,95661.25
2022-09-08T05:46:27.314Z,95670.72
2022-09-08T05:48:56.024Z,95680.56
2022-09-08T05:51:23.476Z,95679.09
2022-09-08T05:53:51.140Z,95677.16
2022-09-08T05:56:20.534Z,95688.94
2022-09-08T05:58:57.394Z,95689.53
2022-09-08T06:01:28.701Z,95682.81
2022-09-08T06:03:56.640Z,95684.38
2022-09-08T06:06:24.405Z,95683.34
2022-09-08T06:08:55.240Z,95677.41
2022-09-08T06:11:23.131Z,95675.16
2022-09-08T06:13:50.588Z,95682.44
2022-09-08T06:16:18.402Z,95679.75
2022-09-08T06:18:48.428Z,95689.06
2022-09-08T06:21:18.609Z,95689.06
2022-09-08T06:23:49.706Z,95685.13
2022-09-08T06:26:43.608Z,95688.63
2022-09-08T06:29:15.290Z,95678.41
2022-09-08T06:31:48.944Z,95684.41
2022-09-08T06:34:23.125Z,95676.56
2022-09-08T06:36:53.682Z,95683.06
2022-09-08T06:39:26.264Z,95685.63
2022-09-08T06:41:59.573Z,95693.19
2022-09-08T06:44:31.798Z,95693.63
2022-09-08T06:46:59.493Z,95686.84
2022-09-08T06:49:29.671Z,95688.81
2022-09-08T06:52:03.418Z,95681.66
2022-09-08T06:54:42.572Z,95689.09
2022-09-08T06:57:29.278Z,95693.03
2022-09-08T07:00:07.760Z,95688.22
2022-09-08T07:02:59.201Z,95681.09
2022-09-08T07:05:51.709Z,95686.59
2022-09-08T07:08:29.805Z,95700.59
2022-09-08T07:11:05.835Z,95702.59
2022-09-08T07:13:38.004Z,95711.50
2022-09-08T07:16:13.995Z,95715.72
2022-09-08T07:18:46.227Z,95714.50
2022-09-08T07:21:21.713Z,95721.47
2022-09-08T07:23:51.156Z,95724.66
2022-09-08T07:26:26.593Z,95716.41
2022-09-08T07:28:56.045Z,95721.56
2022-09-08T07:31:29.413Z,95724.72
2022-09-08T07:34:01.548Z,95726.34
2022-09-08T07:36:37.179Z,95724.97
2022-09-08T07:39:11.409Z,95725.72
2022-09-08T07:41:43.018Z,95731.78
2022-09-08T07:44:15.890Z,95728.75
2022-09-08T07:46:53.584Z,95737.75
2022-09-08T07:49:28.049Z,95729.69
2022-09-08T07:52:05.887Z,95746.16
2022-09-08T07:54:49.105Z,95741.56
2022-09-08T07:57:40.170Z,95749.00
2022-09-08T08:00:13.067Z,95751.16
2022-09-08T08:02:56.551Z,95758.31
2022-09-08T08:05:29.783Z,95757.28
2022-09-08T08:08:10.898Z,95772.63
2022-09-08T08:10:44.607Z,95770.78
2022-09-08T08:13:23.032Z,95770.53
2022-09-08T08:15:59.205Z,95773.38
2022-09-08T08:18:36.790Z,95773.28
2022-09-08T08:21:07.507Z,95779.75
2022-09-08T08:23:48.905Z,95784.06
2022-09-08T08:26:35.197Z,95792.84
2022-09-08T08:29:28.023Z,95793.88
2022-09-08T08:32:20.104Z,95795.16
2022-09-08T08:34:55.546Z,95795.03
2022-09-08T08:37:28.869Z,95796.84
2022-09-08T08:39:58.302Z,95801.31
2022-09-08T08:42:42.641Z,95799.38
2022-09-08T08:45:25.791Z,95800.44
2022-09-08T08:48:07.538Z,95804.19
2022-09-08T08:51:01.503Z,95794.94
2022-09-08T08:54:11.290Z,95795.47
2022-09-08T08:56:47.211Z,95804.47
2022-09-08T08:59:47.736Z,95803.25
2022-09-08T09:02:22.345Z,95804.16
2022-09-08T09:05:16.884Z,95799.97
2022-09-08T09:08:13.299Z,95800.69
2022-09-08T09:10:55.523Z,95799.84
2022-09-08T09:13:52.516Z,95794.47
2022-09-08T09:16:41.796Z,95783.78
2022-09-08T09:19:45.750Z,95791.25
2022-09-08T09:22:22.504Z,95789.97
2022-09-08T09:25:11.511Z,95786.84
2022-09-08T09:27:44.249Z,95778.19
2022-09-08T09:30:21.921Z,95792.84
2022-09-08T09:33:04.811Z,95784.75
2022-09-08T09:35:45.986Z,95793.25
2022-09-08T09:38:41.547Z,95798.16
2022-09-08T09:41:37.519Z,95792.59
2022-09-08T09:44:30.443Z,95789.31
2022-09-08T09:47:14.858Z,95787.63
2022-09-08T09:50:03.838Z,95787.19
2022-09-08T09:52:41.919Z,95784.00
2022-09-08T09:55:25.521Z,95775.66
2022-09-08T09:58:28.395Z,95779.09
2022-09-08T10:01:15.492Z,95766.22
2022-09-08T10:04:23.289Z,95775.34
2022-09-08T10:07:19.846Z,95772.66
2022-09-08T10:10:22.335Z,95779.38
2022-09-08T10:13:23.394Z,95789.19
2022-09-08T10:16:15.528Z,95788.13
2022-09-08T10:19:13.033Z,95785.69
2022-09-08T10:22:19.892Z,95789.09
2022-09-08T10:25:34.549Z,95792.63
2022-09-08T10:28:21.314Z,95791.72
2022-09-08T10:31:32.602Z,95799.22
2022-09-08T10:34:37.714Z,95797.59
2022-09-08T10:37:10.985Z,95802.09
2022-09-08T10:39:50.435Z,95800.06
2022-09-08T10:42:47.675Z,95804.00
2022-09-08T10:45:24.741Z,95802.22
2022-09-08T10:48:31.052Z,95816.34
2022-09-08T10:51:16.226Z,95814.03
2022-09-08T10:54:10.136Z,95818.66
2022-09-08T10:56:41.089Z,95815.28
2022-09-08T10:59:47.730Z,95810.56
2022-09-08T11:02:32.553Z,95812.19
2022-09-08T11:05:24.809Z,95809.38
2022-09-08T11:08:21.588Z,95808.84
2022-09-08T11:11:13.732Z,95811.63
2022-09-08T11:14:01.480Z,95815.16
2022-09-08T11:17:00.706Z,95809.16
2022-09-08T11:19:39.104Z,95812.53
2022-09-08T11:22:29.270Z,95816.97
2022-09-08T11:25:13.395Z,95817.22
2022-09-08T11:27:49.404Z,95812.41
2022-09-08T11:30:21.205Z,95816.66
2022-09-08T11:33:01.148Z,95823.50
2022-09-08T11:35:39.519Z,95829.75
2022-09-08T11:38:22.411Z,95834.34
2022-09-08T11:41:18.305Z,95834.31
2022-09-08T11:44:01.020Z,95833.06
2022-09-08T11:46:44.025Z,95828.72
2022-09-08T11:52:41.078Z,95829.38
2022-09-08T11:55:36.895Z,95824.47
2022-09-08T11:58:16.567Z,95826.59
2022-09-08T12:01:02.067Z,95831.50
2022-09-08T12:03:44.906Z,95824.81
2022-09-08T12:06:39.674Z,95822.44
2022-09-08T12:09:34.175Z,95804.75
2022-09-08T12:12:25.446Z,95809.75
2022-09-08T12:15:04.312Z,95804.59
2022-09-08T12:17:51.886Z,95816.66
2022-09-08T12:20:38.442Z,95814.19
2022-09-08T12:23:38.759Z,95811.53
2022-09-08T12:26:25.758Z,95818.66
2022-09-08T12:29:29.969Z,95818.50
2022-09-08T12:32:34.951Z,95818.75
2022-09-08T12:35:19.744Z,95828.38
2022-09-08T12:38:00.749Z,95829.88
2022-09-08T12:40:51.463Z,95831.31
2022-09-08T12:43:22.583Z,95834.78
2022-09-08T12:46:21.885Z,95826.47
2022-09-08T12:48:56.267Z,95827.34
2022-09-08T12:51:27.048Z,95826.19
2022-09-08T12:54:22.503Z,95831.09
2022-09-08T12:57:02.940Z,95830.44
2022-09-08T12:59:48.333Z,95833.06
2022-09-08T13:02:37.435Z,95836.19
2022-09-08T13:05:22.218Z,95836.69
2022-09-08T13:07:58.101Z,95844.28
2022-09-08T13:10:34.139Z,95839.41
2022-09-08T13:13:32.404Z,95835.00
2022-09-08T13:16:11.951Z,95831.88
2022-09-08T13:18:45.754Z,95833.72
2022-09-08T13:21:22.204Z,95831.28
2022-09-08T13:23:51.923Z,95824.31
2022-09-08T13:26:47.221Z,95825.63
2022-09-08T13:32:34.937Z,95815.59
2022-09-08T13:35:20.785Z,95827.34
2022-09-08T13:38:03.179Z,95825.03
2022-09-08T13:40:52.245Z,95823.91
2022-09-08T13:43:43.745Z,95832.75
2022-09-08T13:46:19.498Z,95821.91
2022-09-08T13:49:06.831Z,95819.56
2022-09-08T13:51:44.669Z,95807.59
2022-09-08T13:54:45.684Z,95807.50
2022-09-08T13:57:28.690Z,95816.81
2022-09-08T14:00:07.655Z,95809.91
2022-09-08T14:02:43.880Z,95814.53
2022-09-08T14:05:20.864Z,95820.78
2022-09-08T14:07:52.641Z,95824.63
2022-09-08T14:10:27.432Z,95814.94
2022-09-08T14:13:00.481Z,95814.69
2022-09-08T14:15:30.472Z,95808.72
2022-09-08T14:18:19.570Z,95818.00
2022-09-08T14:21:02.794Z,95819.84
2022-09-08T14:23:52.655Z,95806.78
2022-09-08T14:26:39.979Z,95820.28
2022-09-08T14:29:18.208Z,95823.53
2022-09-08T14:32:03.751Z,95825.63
2022-09-08T14:34:39.451Z,95823.66
2022-09-08T14:37:13.302Z,95821.66
2022-09-08T14:39:52.546Z,95813.66
2022-09-08T14:42:24.904Z,95814.38
2022-09-08T14:45:19.795Z,95814.66
2022-09-08T14:48:11.253Z,95823.72
2022-09-08T14:51:07.215Z,95818.50
2022-09-08T14:53:51.396Z,95804.72
2022-09-08T14:56:24.404Z,95810.63
2022-09-08T14:58:56.566Z,95801.56
2022-09-08T15:01:30.238Z,95813.84
2022-09-08T15:04:02.416Z,95814.81
2022-09-08T15:06:50.791Z,95820.84
2022-09-08T15:09:32.789Z,95825.56
2022-09-08T15:12:18.014Z,95822.75
2022-09-08T15:14:53.451Z,95825.00
2022-09-08T15:17:27.755Z,95826.66
2022-09-08T15:20:04.876Z,95819.94
2022-09-08T15:22:40.887Z,95816.00
2022-09-08T15:25:23.763Z,95812.81
2022-09-08T15:27:52.080Z,95817.31
2022-09-08T15:30:21.868Z,95828.56
2022-09-08T15:33:07.187Z,95831.97
2022-09-08T15:35:47.641Z,95835.03
2022-09-08T15:38:35.871Z,95830.03
2022-09-08T15:41:21.222Z,95826.13
2022-09-08T15:44:04.284Z,95822.97
2022-09-08T15:46:39.491Z,95815.41
2022-09-08T15:49:18.911Z,95816.25
2022-09-08T15:52:04.128Z,95815.50
2022-09-08T15:54:43.269Z,95817.91
2022-09-08T15:57:25.721Z,95810.75
2022-09-08T16:00:25.895Z,95809.56
2022-09-08T16:02:58.040Z,95810.09
2022-09-08T16:05:32.545Z,95820.09
2022-09-08T16:08:11.847Z,95809.72
2022-09-08T16:11:00.913Z,95813.50
2022-09-08T16:13:31.337Z,95809.41
2022-09-08T16:16:01.005Z,95802.84
2022-09-08T16:18:33.889Z,95810.34
2022-09-08T16:21:10.594Z,95797.06
2022-09-08T16:23:45.156Z,95795.34
2022-09-08T16:26:23.923Z,95799.63
2022-09-08T16:29:02.180Z,95805.91
2022-09-08T16:31:44.207Z,95804.34
2022-09-08T16:34:25.427Z,95803.84
2022-09-08T16:36:54.209Z,95803.03
2022-09-08T16:39:26.853Z,95812.84
2022-09-08T16:42:01.072Z,95806.56
2022-09-08T16:44:31.827Z,95808.97
2022-09-08T16:47:32.536Z,95805.84
2022-09-08T16:50:05.172Z,95812.16
2022-09-08T16:52:41.926Z,95812.84
2022-09-08T16:55:23.129Z,95804.03
2022-09-08T16:57:59.566Z,95809.88
2022-09-08T17:00:32.069Z,95809.66
2022-09-08T17:03:08.169Z,95812.00
2022-09-08T17:05:47.132Z,95802.13
2022-09-08T17:08:20.066Z,95803.84
2022-09-08T17:11:01.308Z,95813.69
2022-09-08T17:13:31.491Z,95810.16
2022-09-08T17:16:22.495Z,95805.88
2022-09-08T17:18:54.125Z,95810.84
2022-09-08T17:21:51.420Z,95808.81
2022-09-08T17:24:23.655Z,95809.00
2022-09-08T17:27:23.410Z,95811.13
2022-09-08T17:30:05.563Z,95814.28
2022-09-08T17:32:55.966Z,95810.34
2022-09-08T17:35:40.506Z,95821.34
2022-09-08T17:38:25.236Z,95815.44
2022-09-08T17:40:58.587Z,95825.25
2022-09-08T17:43:31.213Z,95823.88
2022-09-08T17:46:08.177Z,95820.94
2022-09-08T17:48:44.990Z,95821.56
2022-09-08T17:51:21.945Z,95845.47
2022-09-08T17:53:54.575Z,95834.78
2022-09-08T17:56:42.907Z,95838.50
2022-09-08T17:59:23.689Z,95843.22
2022-09-08T18:02:18.077Z,95838.00
2022-09-08T18:04:49.932Z,95841.94
2022-09-08T18:07:20.544Z,95844.19
2022-09-08T18:10:15.082Z,95842.41
2022-09-08T18:12:51.960Z,95838.97
2022-09-08T18:15:26.966Z,95848.34
2022-09-08T18:18:00.909Z,95853.69
2022-09-08T18:20:30.849Z,95852.19
2022-09-08T18:23:09.752Z,95854.94
2022-09-08T18:25:43.880Z,95864.94
2022-09-08T18:28:28.281Z,95869.28
2022-09-08T18:31:14.069Z,95876.56
2022-09-08T18:34:03.348Z,95880.06
2022-09-08T18:36:53.655Z,95883.59
2022-09-08T18:39:30.139Z,95892.59
2022-09-08T18:42:30.611Z,95897.19
2022-09-08T18:45:20.820Z,95898.09
2022-09-08T18:48:15.308Z,95891.31
2022-09-08T18:51:00.048Z,95899.63
2022-09-08T18:53:31.897Z,95890.81
2022-09-08T18:56:23.076Z,95901.00
2022-09-08T18:59:05.002Z,95897.47
2022-09-08T19:01:47.892Z,95902.63
2022-09-08T19:04:41.656Z,95899.38
2022-09-08T19:07:23.518Z,95902.78
2022-09-08T19:10:00.495Z,95907.97
2022-09-08T19:12:35.667Z,95906.19
2022-09-08T19:15:13.831Z,95909.03
2022-09-08T19:17:55.055Z,95902.50
2022-09-08T19:20:26.627Z,95916.69
2022-09-08T19:23:00.787Z,95916.28
2022-09-08T19:25:28.721Z,95913.41
2022-09-08T19:28:26.498Z,95914.00
2022-09-08T19:31:03.337Z,95909.84
2022-09-08T19:33:43.407Z,95913.59
2022-09-08T19:36:28.046Z,95919.44
2022-09-08T19:39:03.509Z,95924.41
2022-09-08T19:41:39.592Z,95929.34
2022-09-08T19:44:21.719Z,95927.91
2022-09-08T19:46:58.404Z,95926.44
2022-09-08T19:49:52.152Z,95927.50
2022-09-08T19:52:36.943Z,95930.16
2022-09-08T19:55:26.702Z,95928.91
2022-09-08T19:57:56.845Z,95936.34
2022-09-08T20:00:31.517Z,95925.63
2022-09-08T20:03:09.144Z,95935.94
2022-09-08T20:05:44.129Z,95938.00
2022-09-08T20:08:38.035Z,95929.31
2022-09-08T20:11:11.490Z,95929.94
2022-09-08T20:13:50.758Z,95938.38
2022-09-08T20:16:21.323Z,95933.66
2022-09-08T20:18:55.305Z,95933.66
2022-09-08T20:21:47.529Z,95934.88
2022-09-08T20:24:29.480Z,95938.63
2022-09-08T20:27:03.975Z,95941.69
2022-09-08T20:29:39.664Z,95934.28
2022-09-08T20:35:19.729Z,95933.66
2022-09-08T20:38:17.223Z,95938.41
2022-09-08T20:40:47.664Z,95939.69
2022-09-08T20:43:25.264Z,95945.44
2022-09-08T20:45:55.141Z,95936.38
2022-09-08T20:48:29.840Z,95942.38
2022-09-08T20:51:14.093Z,95945.06
2022-09-08T20:54:08.398Z,95953.94
2022-09-08T20:56:44.602Z,95959.91
2022-09-08T20:59:19.273Z,95960.75
2022-09-08T21:01:48.688Z,95963.81
2022-09-08T21:04:23.218Z,95961.53
2022-09-08T21:06:52.091Z,95956.19
2022-09-08T21:09:28.825Z,95967.75
2022-09-08T21:12:08.345Z,95963.22
2022-09-08T21:14:42.288Z,95968.16
2022-09-08T21:17:15.723Z,95963.63
2022-09-08T21:19:52.767Z,95967.75
2022-09-08T21:22:29.060Z,95977.88
2022-09-08T21:25:03.414Z,95977.41
2022-09-08T21:27:40.597Z,95974.75
2022-09-08T21:30:18.108Z,95975.78
2022-09-08T21:32:59.614Z,95974.75
2022-09-08T21:35:35.487Z,95991.66
2022-09-08T21:38:09.385Z,95987.53
2022-09-08T21:40:51.160Z,95986.09
2022-09-08T21:43:21.976Z,95976.81
2022-09-08T21:46:00.345Z,95975.56
2022-09-08T21:48:29.303Z,95981.97
2022-09-08T21:50:59.065Z,95979.47
2022-09-08T21:53:36.937Z,95978.06
2022-09-08T21:56:17.598Z,95984.25
2022-09-08T21:58:53.961Z,95981.56
2022-09-08T22:01:28.468Z,95981.78
2022-09-08T22:03:58.610Z,95986.28
2022-09-08T22:06:30.255Z,95976.41
2022-09-08T22:09:02.238Z,95982.16
2022-09-08T22:11:36.473Z,95979.28
2022-09-08T22:14:13.123Z,95991.25
2022-09-08T22:16:48.189Z,95987.53
2022-09-08T22:19:31.708Z,95984.22
2022-09-08T22:22:14.958Z,95981.75
2022-09-08T22:24:50.389Z,95987.75
2022-09-08T22:27:21.744Z,95986.72
2022-09-08T22:30:03.656Z,95990.00
2022-09-08T22:32:41.355Z,95988.13
2022-09-08T22:35:23.759Z,95987.53
2022-09-08T22:37:58.231Z,95996.19
2022-09-08T22:40:45.247Z,95998.66
2022-09-08T22:43:21.973Z,96001.13
2022-09-08T22:45:55.154Z,95994.53
2022-09-08T22:48:33.588Z,96000.31
2022-09-08T22:51:05.184Z,96001.53
2022-09-08T22:53:36.685Z,96001.53
2022-09-08T22:56:13.495Z,95996.38
2022-09-08T22:58:43.311Z,95995.34
2022-09-08T23:01:18.359Z,95991.38
2022-09-08T23:03:55.278Z,95997.31
2022-09-08T23:06:27.219Z,95989.88
2022-09-08T23:09:02.996Z,95994.00
2022-09-08T23:11:41.155Z,96003.44
2022-09-08T23:14:23.085Z,95996.72
2022-09-08T23:17:01.621Z,96008.88
2022-09-08T23:19:39.022Z,96001.06
2022-09-08T23:22:11.872Z,96002.91
2022-09-08T23:24:43.529Z,95997.13
2022-09-08T23:27:26.479Z,95992.78
2022-09-08T23:30:01.112Z,95993.19
2022-09-08T23:32:46.365Z,95994.00
2022-09-08T23:35:16.139Z,95989.44
2022-09-08T23:37:57.002Z,95995.22
2022-09-08T23:40:30.272Z,95988.22
2022-09-08T23:42:59.125Z,95986.53
2022-09-08T23:45:32.132Z,95989.34
2022-09-08T23:48:05.512Z,95987.34
2022-09-08T23:50:35.729Z,95987.13
2022-09-08T23:53:06.069Z,95975.38
2022-09-08T23:55:37.224Z,95971.16
2022-09-08T23:58:11.849Z,95972.22
